Palm Grove, Iowa
Current Conditions -  °F | °C
As of 11:55 AM on Monday 24 Nov 2014 (Local Time) from KFOD Reporting Station
Overcast Overcast  
Wind Chill:   Ceiling: 2300
Heat Index: 23°   Visibility: 10mi
Dew Point: 12°   Wind: 18mph
Humidity: 63%   Direction: 290°WNW
Pressure: 29.6"   Gusts: 28mph
Location:  42.5075°N, 94.2531°W
Report Text: KFOD 241755Z AUTO 29016G24KT 10SM OVC023 M05/M11 A2960 RMK AO1 11040 21060 52020
Loading
Personal Weather Stations






























Interactive Weather Map New forecast layout! Learn more

10-Day Weather Forecast

Advertisements
Track Severe Weather on mobile